Time;durP1;ratioP1;P1;durP2;ratioP2;P2;SDS_P1;SDS_P2;PMS_P1;PMS_P2;Temp;Humidity;BMP_temperature;BMP_pressure;BME280_temperature;BME280_humidity;BME280_pressure;Samples;Min_cycle;Max_cycle;Signal;HPM_P1;HPM_P2
2022/05/18 00:01:42;;;;;;;;;;;15.30;99.90;;;14.29;91.35;96125.97;10505076;28;1894;-75
2022/05/18 00:06:45;;;;;;;;;;;15.30;99.90;;;14.22;94.57;96125.50;10490417;28;1769;-74
2022/05/18 00:11:48;;;;;;;;;;;15.20;99.90;;;14.22;94.03;96128.22;10488125;28;2191;-75
2022/05/18 00:16:52;;;;;;;;;;;15.20;99.90;;;14.15;94.39;96127.75;10493627;28;2479;-76
2022/05/18 00:21:55;;;;;;;;;;;15.10;99.90;;;14.30;93.85;96133.78;10508036;28;1874;-75
2022/05/18 00:26:58;;;;;;;;;;;15.10;99.90;;;14.55;91.33;96129.19;10474744;28;2044;-75
2022/05/18 00:32:01;;;;;;;;;;;15.30;99.90;;;14.47;92.18;96138.75;10506524;28;2309;-75
2022/05/18 00:37:04;;;;;;;;;;;15.40;99.90;;;14.46;92.84;96136.31;10496431;28;1931;-75
2022/05/18 00:42:07;;;;;;;;;;;15.40;99.90;;;14.27;92.18;96128.97;10498271;28;1994;-74
2022/05/18 00:47:10;;;;;;;;;;;15.40;99.90;;;14.17;92.44;96134.47;10482917;28;1845;-74
2022/05/18 00:52:30;;;;;;;;;;;15.20;99.90;;;14.06;93.49;96133.00;10490569;28;1983;-75
2022/05/18 00:57:33;;;;;;;;;;;15.10;99.90;;;13.96;93.32;96133.91;10492925;28;2172;-75
2022/05/18 01:02:36;;;;;;;;;;;14.90;99.90;;;13.91;94.85;96135.84;10487960;28;2339;-75
2022/05/18 01:07:40;;;;;;;;;;;14.90;99.90;;;13.85;96.26;96137.78;10475091;28;2093;-74
2022/05/18 01:12:44;;;;;;;;;;;14.90;99.90;;;13.76;97.42;96128.69;10510770;28;2096;-74
2022/05/18 01:18:01;;;;;;;;;;;14.80;99.90;;;13.76;97.33;96137.59;10499205;28;2112;-74
2022/05/18 01:23:24;;;;;;;;;;;14.70;99.90;;;13.68;97.68;96135.53;10502509;28;2100;-74
2022/05/18 01:28:37;;;;;;;;;;;14.70;99.90;;;13.57;98.59;96142.09;10492995;28;2086;-75
2022/05/18 01:33:41;;;;;;;;;;;14.60;99.90;;;13.56;100.00;96145.09;10496408;28;1918;-75
2022/05/18 01:38:47;;;;;;;;;;;14.60;99.90;;;13.51;99.01;96146.75;10508793;28;2069;-74
2022/05/18 01:43:50;;;;;;;;;;;14.50;99.90;;;13.48;100.00;96149.19;10488363;28;1980;-74
2022/05/18 01:48:54;;;;;;;;;;;14.60;99.90;;;13.42;100.00;96151.16;10512791;28;1915;-74
2022/05/18 01:53:57;;;;;;;;;;;14.50;99.90;;;13.35;100.00;96147.94;10496571;28;1984;-75
2022/05/18 01:59:00;;;;;;;;;;;14.50;99.90;;;13.35;100.00;96156.03;10495472;28;2008;-74
2022/05/18 02:04:04;;;;;;;;;;;14.40;99.90;;;13.25;100.00;96162.31;10505225;28;1965;-75
2022/05/18 02:09:07;;;;;;;;;;;14.60;99.90;;;13.22;100.00;96167.47;10490077;28;1854;-75
2022/05/18 02:14:10;;;;;;;;;;;14.10;99.90;;;13.15;100.00;96172.34;10493635;28;1909;-74
2022/05/18 02:19:13;;;;;;;;;;;14.10;99.90;;;13.19;100.00;96162.63;10512901;28;1995;-75
2022/05/18 02:24:15;;;;;;;;;;;14.20;99.90;;;13.15;100.00;96166.94;10510688;28;1943;-74
2022/05/18 02:29:18;;;;;;;;;;;14.00;99.90;;;13.04;100.00;96170.78;10496883;28;2049;-74
2022/05/18 02:34:21;;;;;;;;;;;14.10;99.90;;;12.94;100.00;96167.06;10512768;28;2016;-75
2022/05/18 02:39:25;;;;;;;;;;;13.90;99.90;;;12.80;100.00;96182.28;10485663;28;1889;-74
2022/05/18 02:44:28;;;;;;;;;;;13.90;99.90;;;12.73;100.00;96183.66;10498137;28;1801;-73
2022/05/18 02:49:32;;;;;;;;;;;13.80;99.90;;;12.63;100.00;96185.31;10509419;28;1899;-76
2022/05/18 02:59:56;;;;;;;;;;;13.70;99.90;;;12.51;100.00;96187.50;10486527;28;2321;-74
2022/05/18 03:04:59;;;;;;;;;;;13.60;99.90;;;12.43;100.00;96194.28;10491747;28;2024;-74
2022/05/18 03:10:02;;;;;;;;;;;13.60;99.90;;;12.35;100.00;96194.84;10482703;28;2317;-74
2022/05/18 03:15:05;;;;;;;;;;;13.50;99.90;;;12.47;100.00;96199.09;10494697;28;2397;-74
2022/05/18 03:20:08;;;;;;;;;;;13.50;99.90;;;12.44;100.00;96203.19;10482998;28;1923;-75
2022/05/18 03:25:11;;;;;;;;;;;13.60;99.90;;;12.62;100.00;96207.16;10501930;28;1891;-75
2022/05/18 03:30:14;;;;;;;;;;;13.70;99.90;;;12.80;100.00;96220.03;10498633;28;1943;-74
2022/05/18 03:35:19;;;;;;;;;;;13.70;99.90;;;12.90;100.00;96213.78;10488709;28;1953;-73
2022/05/18 03:40:23;;;;;;;;;;;13.90;99.90;;;12.75;100.00;96216.56;10506513;28;1936;-75
2022/05/18 03:45:26;;;;;;;;;;;13.80;99.90;;;12.75;100.00;96219.25;10483392;28;1884;-74
2022/05/18 03:50:30;;;;;;;;;;;13.90;99.90;;;12.90;100.00;96219.97;10507179;28;1987;-75
2022/05/18 03:55:33;;;;;;;;;;;13.90;99.90;;;13.10;100.00;96226.34;10483225;28;1977;-75
2022/05/18 04:00:36;;;;;;;;;;;14.10;99.90;;;13.27;100.00;96224.13;10489103;28;1908;-75
2022/05/18 04:05:40;;;;;;;;;;;14.30;99.90;;;13.49;100.00;96226.44;10503956;28;1900;-75
2022/05/18 04:10:43;;;;;;;;;;;14.40;99.90;;;13.77;100.00;96241.09;10505490;28;1891;-73
2022/05/18 04:15:47;;;;;;;;;;;14.70;99.90;;;13.98;100.00;96236.31;10489616;28;1977;-74
2022/05/18 04:20:50;;;;;;;;;;;14.70;99.90;;;14.16;100.00;96232.09;10490698;28;1920;-74
2022/05/18 04:25:53;;;;;;;;;;;15.10;99.90;;;14.47;100.00;96238.84;10506276;28;2099;-74
2022/05/18 04:30:57;;;;;;;;;;;15.20;99.90;;;14.86;98.89;96237.88;10482615;28;2672;-75
2022/05/18 04:36:02;;;;;;;;;;;15.40;99.90;;;15.04;97.41;96247.13;10479237;28;1911;-75
2022/05/18 04:41:06;;;;;;;;;;;15.60;99.90;;;15.16;95.48;96263.75;10500396;28;2081;-74
2022/05/18 04:46:09;;;;;;;;;;;15.90;99.90;;;15.52;93.06;96258.63;10493629;28;1845;-75
2022/05/18 04:51:12;;;;;;;;;;;16.10;99.90;;;15.91;91.21;96279.25;10504065;28;1912;-76
2022/05/18 04:56:16;;;;;;;;;;;16.40;99.90;;;15.90;89.82;96278.47;10503595;28;2025;-76
2022/05/18 05:01:19;;;;;;;;;;;16.70;99.90;;;16.20;87.91;96279.84;10490999;28;1828;-75
2022/05/18 05:06:22;;;;;;;;;;;16.90;99.90;;;16.56;85.37;96284.66;10509054;28;1943;-76
2022/05/18 05:11:25;;;;;;;;;;;17.10;99.90;;;16.77;84.15;96284.31;10510175;28;1884;-76
2022/05/18 05:16:29;;;;;;;;;;;17.40;99.90;;;16.98;82.80;96290.94;10511785;28;1906;-76
2022/05/18 05:21:33;;;;;;;;;;;17.70;99.90;;;17.07;83.10;96299.22;10499811;28;1986;-76
2022/05/18 05:26:36;;;;;;;;;;;17.80;99.90;;;17.55;80.14;96299.56;10488160;28;1944;-77
2022/05/18 05:31:39;;;;;;;;;;;18.10;99.90;;;17.58;78.06;96298.97;10494953;28;1943;-77
2022/05/18 05:36:42;;;;;;;;;;;18.30;99.90;;;17.80;78.56;96304.47;10484179;28;1998;-73
2022/05/18 05:41:45;;;;;;;;;;;18.50;99.90;;;17.61;76.69;96301.06;10481314;28;1947;-74
2022/05/18 05:46:48;;;;;;;;;;;18.50;99.90;;;17.58;76.52;96312.56;10499685;28;1967;-76
2022/05/18 05:51:51;;;;;;;;;;;18.50;99.90;;;17.84;73.32;96307.38;10514554;28;1919;-76
2022/05/18 05:56:55;;;;;;;;;;;18.50;99.90;;;17.68;74.36;96312.31;10507049;28;1956;-76
2022/05/18 06:01:58;;;;;;;;;;;18.50;99.90;;;17.27;75.06;96312.38;10507076;28;1895;-75
2022/05/18 06:07:01;;;;;;;;;;;18.40;99.90;;;17.46;74.59;96318.50;10507956;28;1944;-75
2022/05/18 06:12:05;;;;;;;;;;;18.30;99.90;;;17.55;73.57;96318.59;10508040;28;1952;-76
2022/05/18 06:17:08;;;;;;;;;;;18.30;99.90;;;18.32;70.33;96321.22;10502727;28;1921;-76
2022/05/18 06:22:11;;;;;;;;;;;18.90;99.90;;;18.39;69.19;96317.25;10514332;28;1807;-76
2022/05/18 06:27:14;;;;;;;;;;;19.20;99.90;;;18.72;68.84;96324.06;10507299;28;1940;-74
2022/05/18 06:32:18;;;;;;;;;;;19.40;99.90;;;18.82;66.80;96321.03;10487402;28;1939;-75
2022/05/18 06:37:21;;;;;;;;;;;19.70;99.90;;;18.97;66.55;96333.47;10504967;28;1977;-75
2022/05/18 06:42:26;;;;;;;;;;;19.80;99.90;;;19.26;65.29;96335.66;10483252;28;2106;-76
2022/05/18 06:47:33;;;;;;;;;;;20.00;99.90;;;19.48;65.23;96339.44;10487996;28;1983;-74
2022/05/18 06:52:37;;;;;;;;;;;20.20;99.90;;;19.56;63.58;96328.53;10482739;28;1943;-73
2022/05/18 06:57:40;;;;;;;;;;;20.40;99.90;;;19.85;60.89;96329.88;10510489;28;1977;-75
2022/05/18 07:02:44;;;;;;;;;;;20.70;99.90;;;19.94;60.68;96331.53;10508200;28;1934;-74
2022/05/18 07:07:47;;;;;;;;;;;20.80;99.90;;;20.37;60.39;96335.38;10485261;28;2002;-75
2022/05/18 07:12:50;;;;;;;;;;;21.00;99.90;;;21.04;57.63;96327.38;10498046;28;1549;-74
2022/05/18 07:17:53;;;;;;;;;;;21.50;99.90;;;21.71;55.25;96319.53;10499624;28;1918;-74
2022/05/18 07:23:06;;;;;;;;;;;21.90;99.90;;;22.12;52.80;96327.78;10493057;28;1911;-76
2022/05/18 07:28:09;;;;;;;;;;;22.40;99.90;;;21.99;51.71;96320.59;10485960;28;1915;-76
2022/05/18 07:33:23;;;;;;;;;;;22.60;99.90;;;21.26;53.49;96326.34;10479176;28;1863;-76
2022/05/18 07:38:25;;;;;;;;;;;22.30;99.90;;;21.52;54.42;96328.97;10481392;28;2283;-76
2022/05/18 07:43:40;;;;;;;;;;;22.30;99.90;;;21.04;54.20;96326.56;10479387;28;2092;-75
2022/05/18 07:48:43;;;;;;;;;;;22.20;99.90;;;21.91;52.10;96337.91;10506217;28;1900;-76
2022/05/18 07:53:46;;;;;;;;;;;22.50;99.90;;;21.46;54.24;96329.50;10494679;28;2175;-74
2022/05/18 07:58:49;;;;;;;;;;;22.50;99.90;;;21.79;53.45;96322.19;10482506;28;1874;-73
2022/05/18 08:03:52;;;;;;;;;;;22.50;99.90;;;21.31;55.65;96333.56;10495339;28;1884;-74
2022/05/18 08:08:55;;;;;;;;;;;22.40;99.90;;;22.36;52.98;96326.31;10484744;28;1885;-74
2022/05/18 08:19:19;;;;;;;;;;;23.10;99.90;;;22.77;50.94;96336.38;10484879;28;2905;-74
2022/05/18 08:24:22;;;;;;;;;;;23.40;99.90;;;22.84;52.15;96335.81;10495726;28;1909;-74
2022/05/18 08:29:25;;;;;;;;;;;23.50;99.90;;;23.08;49.90;96341.38;10484269;28;1853;-74
2022/05/18 08:34:28;;;;;;;;;;;23.80;99.90;;;22.97;51.45;96343.00;10483988;28;1918;-72
2022/05/18 08:39:31;;;;;;;;;;;23.80;99.90;;;22.86;51.75;96334.38;10477699;28;1882;-74
2022/05/18 08:44:34;;;;;;;;;;;23.70;99.90;;;23.12;50.67;96334.09;10492591;28;2029;-74
2022/05/18 08:49:39;;;;;;;;;;;23.80;99.90;;;22.85;51.25;96329.22;10480498;28;1891;-73
2022/05/18 08:54:42;;;;;;;;;;;23.80;99.90;;;22.73;51.40;96335.47;10505661;28;1989;-75
2022/05/18 08:59:45;;;;;;;;;;;23.70;99.90;;;22.38;51.88;96335.78;10477610;28;1888;-73
2022/05/18 09:04:49;;;;;;;;;;;23.30;99.90;;;22.97;50.62;96332.03;10475472;28;2019;-73
2022/05/18 09:10:16;;;;;;;;;;;23.60;99.90;;;22.47;50.67;96322.03;10508765;28;1882;-74
2022/05/18 09:15:19;;;;;;;;;;;23.60;99.90;;;22.44;49.59;96327.34;10501580;28;1979;-73
2022/05/18 09:20:23;;;;;;;;;;;23.50;99.90;;;22.50;50.21;96324.06;10500405;28;1869;-72
2022/05/18 09:25:26;;;;;;;;;;;23.20;99.90;;;22.64;48.54;96316.34;10487643;28;1924;-75
2022/05/18 09:30:29;;;;;;;;;;;23.50;99.90;;;22.75;48.76;96324.16;10469879;28;1974;-74
2022/05/18 09:35:32;;;;;;;;;;;23.60;99.90;;;22.86;46.00;96323.44;10490592;28;1918;-74
2022/05/18 09:40:36;;;;;;;;;;;23.60;99.90;;;23.06;44.62;96324.50;10504486;28;1896;-73
2022/05/18 09:45:39;;;;;;;;;;;23.80;99.90;;;22.98;45.06;96321.84;10487346;28;1901;-74
2022/05/18 09:50:42;;;;;;;;;;;23.80;99.90;;;22.43;44.57;96321.09;10507116;28;1833;-73
2022/05/18 09:55:45;;;;;;;;;;;23.50;99.90;;;22.70;43.53;96324.38;10485171;28;1929;-76
2022/05/18 10:00:48;;;;;;;;;;;23.50;99.90;;;22.59;43.86;96313.06;10517248;28;1768;-74
2022/05/18 10:11:09;;;;;;;;;;;23.80;99.90;;;23.10;41.46;96317.19;10482868;28;1889;-74
2022/05/18 10:16:12;;;;;;;;;;;23.90;99.90;;;23.27;43.86;96315.38;10510321;28;1913;-74
2022/05/18 10:21:15;;;;;;;;;;;24.10;99.90;;;22.91;46.60;96319.69;10489663;28;1899;-75
2022/05/18 10:26:33;;;;;;;;;;;23.90;99.90;;;22.89;47.98;96311.78;10494459;28;1938;-75
2022/05/18 10:31:36;;;;;;;;;;;24.00;99.90;;;22.90;46.11;96307.91;10506527;28;2221;-74
2022/05/18 10:36:40;;;;;;;;;;;24.00;99.90;;;23.14;40.34;96315.34;10495471;28;2244;-74
2022/05/18 10:41:45;;;;;;;;;;;;;;;24.49;39.26;96315.19;10509735;28;1826;-74
2022/05/18 10:46:48;;;;;;;;;;;25.10;99.90;;;25.56;37.69;96309.72;10507951;28;1884;-74
2022/05/18 10:51:51;;;;;;;;;;;26.90;99.90;;;25.25;39.10;96308.59;10517151;28;1899;-73
2022/05/18 10:56:55;;;;;;;;;;;;;;;25.50;39.07;96311.16;10490395;28;1981;-74
2022/05/18 11:01:58;;;;;;;;;;;27.60;99.90;;;25.40;38.97;96300.72;10479310;28;2413;-72
2022/05/18 11:07:05;;;;;;;;;;;27.80;99.90;;;25.30;38.74;96302.81;10494144;28;1924;-72
2022/05/18 11:12:07;;;;;;;;;;;27.80;99.90;;;24.60;41.45;96310.00;10479380;28;1824;-72
2022/05/18 11:17:10;;;;;;;;;;;27.30;99.90;;;25.33;39.46;96288.38;10507683;28;1954;-72
2022/05/18 11:22:13;;;;;;;;;;;27.60;99.90;;;23.95;43.30;96296.34;10507030;28;2097;-72
2022/05/18 11:27:16;;;;;;;;;;;26.70;99.90;;;24.27;42.69;96284.34;10484602;28;1761;-74
2022/05/18 11:32:20;;;;;;;;;;;26.30;99.90;;;23.90;44.73;96285.63;10508487;28;2387;-74
2022/05/18 11:37:23;;;;;;;;;;;25.60;99.90;;;23.36;46.32;96278.47;10481414;28;2198;-74
2022/05/18 11:42:26;;;;;;;;;;;25.00;99.90;;;23.60;46.86;96279.56;10477978;28;1984;-72
2022/05/18 11:47:29;;;;;;;;;;;24.70;99.90;;;23.67;46.12;96274.34;10492713;28;2461;-72
2022/05/18 11:52:32;;;;;;;;;;;24.60;99.90;;;24.02;45.19;96271.06;10498476;28;1873;-74
2022/05/18 11:57:35;;;;;;;;;;;24.70;99.90;;;23.89;46.22;96270.28;10485373;28;1921;-72
2022/05/18 12:02:38;;;;;;;;;;;25.00;99.90;;;23.88;45.90;96257.72;10488355;28;1842;-72
2022/05/18 12:07:44;;;;;;;;;;;25.00;99.90;;;23.84;47.09;96259.53;10504293;28;1836;-73
2022/05/18 12:12:47;;;;;;;;;;;24.90;99.90;;;23.54;46.97;96262.56;10482444;28;1770;-74
2022/05/18 12:17:50;;;;;;;;;;;24.90;99.90;;;23.75;46.81;96262.44;10505360;28;1918;-74
2022/05/18 12:22:53;;;;;;;;;;;24.70;99.90;;;23.59;46.94;96272.47;10484534;28;1835;-73
2022/05/18 12:27:56;;;;;;;;;;;24.60;99.90;;;23.76;46.44;96265.97;10489746;28;1861;-73
2022/05/18 12:33:01;;;;;;;;;;;24.70;99.90;;;23.72;46.22;96263.91;10496682;28;1853;-73
2022/05/18 12:38:04;;;;;;;;;;;24.40;99.90;;;23.84;47.17;96256.81;10479888;28;1918;-79
2022/05/18 12:43:08;;;;;;;;;;;24.70;99.90;;;23.86;46.32;96260.81;10500437;28;1828;-79
2022/05/18 12:48:11;;;;;;;;;;;24.90;99.90;;;24.07;45.63;96271.63;10506175;28;1865;-79
2022/05/18 12:53:14;;;;;;;;;;;24.90;99.90;;;23.76;45.80;96268.72;10511471;28;1865;-78
2022/05/18 12:58:18;;;;;;;;;;;24.90;99.90;;;23.75;45.14;96258.91;10508811;28;1910;-76
2022/05/18 13:03:21;;;;;;;;;;;24.70;99.90;;;23.94;44.46;96261.81;10504526;28;1880;-79
2022/05/18 13:08:24;;;;;;;;;;;25.00;99.90;;;23.67;44.76;96268.88;10507440;28;1866;-78
2022/05/18 13:13:27;;;;;;;;;;;24.60;99.90;;;23.76;43.81;96265.97;10501610;28;1797;-77
2022/05/18 13:18:30;;;;;;;;;;;24.70;99.90;;;23.53;43.44;96255.44;10483657;28;1930;-77
2022/05/18 13:23:33;;;;;;;;;;;24.50;99.90;;;23.79;43.00;96252.34;10501607;28;1862;-76
2022/05/18 13:28:36;;;;;;;;;;;24.70;99.90;;;24.00;41.31;96249.44;10491872;28;1766;-76
2022/05/18 13:33:39;;;;;;;;;;;24.70;99.90;;;24.12;39.73;96252.16;10500583;28;1873;-76
2022/05/18 13:38:42;;;;;;;;;;;25.00;99.90;;;23.60;39.48;96239.22;10505841;28;1918;-77
2022/05/18 13:43:47;;;;;;;;;;;24.90;99.90;;;24.12;38.95;96248.59;10509349;28;1840;-75
2022/05/18 13:48:50;;;;;;;;;;;24.80;99.90;;;23.37;40.48;96238.13;10506883;28;2175;-76
2022/05/18 13:53:53;;;;;;;;;;;24.70;99.90;;;23.73;39.41;96227.09;10503681;28;1842;-77
2022/05/18 13:58:58;;;;;;;;;;;24.60;99.90;;;23.69;39.52;96233.63;10508731;28;1909;-75
2022/05/18 14:04:04;;;;;;;;;;;24.70;99.90;;;23.81;38.93;96230.84;10488456;28;1826;-75
2022/05/18 14:09:07;;;;;;;;;;;24.70;99.90;;;23.64;39.78;96226.44;10490694;28;1809;-75
2022/05/18 14:14:10;;;;;;;;;;;24.70;99.90;;;23.57;41.35;96236.38;10493289;28;1916;-73
2022/05/18 14:19:29;;;;;;;;;;;24.70;99.90;;;23.66;41.13;96221.38;10494553;28;1977;-75
2022/05/18 14:24:52;;;;;;;;;;;24.50;99.90;;;23.77;41.65;96224.44;10502705;28;1893;-81
2022/05/18 14:29:56;;;;;;;;;;;24.70;99.90;;;23.55;41.76;96217.50;10500348;28;1824;-81
2022/05/18 14:34:59;;;;;;;;;;;24.60;99.90;;;23.83;41.64;96211.28;10543136;28;1841;-79
2022/05/18 14:40:02;;;;;;;;;;;24.70;99.90;;;23.51;42.42;96211.09;10550593;28;1898;-80
2022/05/18 14:45:06;;;;;;;;;;;24.70;99.90;;;23.84;41.24;96207.38;10504129;28;1855;-82
2022/05/18 14:50:10;;;;;;;;;;;24.80;99.90;;;23.77;41.22;96218.16;10499417;28;1840;-82
2022/05/18 14:55:13;;;;;;;;;;;24.80;99.90;;;23.79;41.60;96204.88;10521479;28;1924;-81
2022/05/18 15:00:16;;;;;;;;;;;24.70;99.90;;;23.76;41.47;96211.09;10503772;28;1990;-75
2022/05/18 15:05:19;;;;;;;;;;;25.00;99.90;;;23.40;41.81;96207.22;10503792;28;1782;-75
2022/05/18 15:10:22;;;;;;;;;;;24.70;99.90;;;23.86;40.73;96216.09;10508625;28;1829;-75
2022/05/18 15:15:25;;;;;;;;;;;24.70;99.90;;;23.78;40.29;96206.03;10492778;28;2042;-74
2022/05/18 15:20:28;;;;;;;;;;;24.70;99.90;;;23.29;40.82;96206.13;10508140;28;1823;-73
2022/05/18 15:25:32;;;;;;;;;;;24.50;99.90;;;23.62;40.44;96204.03;10508800;28;1815;-74
2022/05/18 15:30:35;;;;;;;;;;;24.40;99.90;;;23.28;41.02;96201.75;10498824;28;1839;-75
2022/05/18 15:35:38;;;;;;;;;;;24.40;99.90;;;23.05;41.06;96205.00;10487161;28;1976;-74
2022/05/18 15:40:42;;;;;;;;;;;24.20;99.90;;;23.19;40.78;96199.94;10474904;28;1797;-74
2022/05/18 15:45:45;;;;;;;;;;;24.00;99.90;;;23.39;40.55;96197.41;10487329;28;2189;-74
2022/05/18 15:50:47;;;;;;;;;;;24.20;99.90;;;23.24;39.78;96209.91;10481803;28;1899;-74
2022/05/18 15:55:50;;;;;;;;;;;24.20;99.90;;;23.20;39.69;96195.25;10492160;28;1910;-75
2022/05/18 16:00:54;;;;;;;;;;;24.10;99.90;;;23.13;39.95;96200.53;10520143;28;1852;-77
2022/05/18 16:05:58;;;;;;;;;;;24.10;99.90;;;22.80;40.26;96197.88;10514823;28;1835;-74
2022/05/18 16:11:01;;;;;;;;;;;23.90;99.90;;;22.77;40.09;96209.50;10508882;28;1849;-74
2022/05/18 16:16:04;;;;;;;;;;;23.70;99.90;;;22.63;40.81;96205.16;10498434;28;1918;-74
2022/05/18 16:21:07;;;;;;;;;;;23.60;99.90;;;22.35;41.00;96201.47;10489761;28;1855;-75
2022/05/18 16:26:26;;;;;;;;;;;23.40;99.90;;;22.26;40.95;96201.53;10486729;28;1872;-75
2022/05/18 16:31:29;;;;;;;;;;;23.20;99.90;;;22.12;41.52;96207.31;10484619;28;1864;-75
2022/05/18 16:36:32;;;;;;;;;;;23.10;99.90;;;22.05;41.22;96208.97;10499265;28;1918;-75
2022/05/18 16:41:37;;;;;;;;;;;23.00;99.90;;;22.05;41.71;96207.03;10477543;28;1740;-75
2022/05/18 16:46:41;;;;;;;;;;;22.90;99.90;;;21.97;41.78;96205.19;10504154;28;1871;-75
2022/05/18 16:51:48;;;;;;;;;;;22.90;99.90;;;21.80;42.00;96199.84;10489368;28;1789;-76
2022/05/18 16:57:07;;;;;;;;;;;22.80;99.90;;;21.74;42.42;96201.19;10503291;28;1977;-76
2022/05/18 17:02:14;;;;;;;;;;;22.60;99.90;;;21.68;42.86;96197.06;10515441;28;1827;-75
2022/05/18 17:07:17;;;;;;;;;;;22.60;99.90;;;21.56;42.14;96206.81;10495598;28;1835;-78
2022/05/18 17:12:20;;;;;;;;;;;22.40;99.90;;;21.43;42.46;96205.13;10498211;28;1824;-76
2022/05/18 17:17:24;;;;;;;;;;;22.30;99.90;;;21.44;42.73;96200.47;10523758;28;1973;-76
2022/05/18 17:22:27;;;;;;;;;;;22.20;99.90;;;21.32;42.69;96195.75;10493336;28;1914;-75
2022/05/18 17:27:31;;;;;;;;;;;22.20;99.90;;;21.17;43.28;96210.75;10487415;28;1879;-76
2022/05/18 17:32:33;;;;;;;;;;;22.10;99.90;;;21.01;43.50;96210.53;10509321;28;1874;-75
2022/05/18 17:37:36;;;;;;;;;;;21.90;99.90;;;20.91;43.48;96210.88;10502669;28;1965;-75
2022/05/18 17:42:39;;;;;;;;;;;21.70;99.90;;;20.79;43.57;96206.09;10495696;28;1608;-74
2022/05/18 17:47:42;;;;;;;;;;;21.60;99.90;;;20.66;43.45;96212.59;10518254;28;1864;-75
2022/05/18 17:52:45;;;;;;;;;;;21.50;99.90;;;20.58;43.03;96216.16;10502291;28;1819;-75
2022/05/18 17:57:49;;;;;;;;;;;21.40;99.90;;;20.47;42.79;96223.91;10491013;28;1918;-77
2022/05/18 18:02:52;;;;;;;;;;;21.40;99.90;;;20.38;43.39;96225.84;10490442;28;1880;-77
2022/05/18 18:08:00;;;;;;;;;;;21.30;99.90;;;20.28;43.17;96228.91;10499097;28;1867;-77
2022/05/18 18:13:04;;;;;;;;;;;21.20;99.90;;;20.17;42.86;96233.13;10492205;28;1568;-76
2022/05/18 18:18:07;;;;;;;;;;;21.10;99.90;;;20.02;43.40;96233.59;10495324;28;1974;-77
2022/05/18 18:23:10;;;;;;;;;;;21.00;99.90;;;19.85;44.29;96232.50;10497060;28;1468;-76
2022/05/18 18:28:13;;;;;;;;;;;20.90;99.90;;;19.70;45.26;96232.97;10490369;28;1494;-76
2022/05/18 18:33:17;;;;;;;;;;;20.70;99.90;;;19.57;45.37;96247.53;10506551;28;1515;-76
2022/05/18 18:38:21;;;;;;;;;;;20.60;99.90;;;19.42;46.13;96237.91;10487390;28;1971;-78
2022/05/18 18:43:24;;;;;;;;;;;20.50;99.90;;;19.27;46.51;96227.44;10507925;28;1584;-77
2022/05/18 18:48:28;;;;;;;;;;;20.20;99.90;;;19.12;47.11;96234.16;10524834;28;1445;-75
2022/05/18 18:58:51;;;;;;;;;;;19.90;99.90;;;18.83;47.58;96230.06;10517213;28;1968;-76
2022/05/18 19:03:54;;;;;;;;;;;19.80;99.90;;;18.73;47.96;96235.78;10488957;28;1598;-76
2022/05/18 19:08:57;;;;;;;;;;;19.80;99.90;;;18.54;48.43;96240.63;10515574;28;1528;-74
2022/05/18 19:14:00;;;;;;;;;;;19.60;99.90;;;18.45;48.54;96239.78;10512118;28;1560;-76
2022/05/18 19:19:05;;;;;;;;;;;19.50;99.90;;;18.30;48.82;96244.50;10521639;28;1954;-76
2022/05/18 19:24:15;;;;;;;;;;;19.40;99.90;;;18.16;49.36;96249.22;10494073;28;1636;-75
2022/05/18 19:29:18;;;;;;;;;;;19.10;99.90;;;18.19;49.43;96250.50;10496863;28;1555;-74
2022/05/18 19:34:21;;;;;;;;;;;19.10;99.90;;;18.21;49.66;96246.38;10508897;28;1602;-73
2022/05/18 19:39:25;;;;;;;;;;;19.10;99.90;;;18.17;49.01;96250.81;10508249;28;1910;-73
2022/05/18 19:44:28;;;;;;;;;;;19.10;99.90;;;18.29;49.05;96242.91;10503746;28;1756;-73
2022/05/18 19:49:31;;;;;;;;;;;19.10;99.90;;;18.10;49.30;96245.81;10509038;28;1503;-73
2022/05/18 19:54:35;;;;;;;;;;;19.10;99.90;;;17.82;50.33;96238.91;10484300;28;1856;-73
2022/05/18 19:59:38;;;;;;;;;;;18.90;99.90;;;17.93;50.51;96247.63;10495240;28;1983;-73
2022/05/18 20:04:41;;;;;;;;;;;18.80;99.90;;;17.66;51.24;96243.84;10507350;28;1739;-74
2022/05/18 20:09:43;;;;;;;;;;;18.70;99.90;;;17.46;51.50;96249.75;10507210;28;1834;-73
2022/05/18 20:14:52;;;;;;;;;;;18.50;99.90;;;17.27;52.49;96247.97;10507640;28;1444;-74
2022/05/18 20:20:02;;;;;;;;;;;18.40;99.90;;;17.15;52.74;96244.97;10506852;28;1909;-74
2022/05/18 20:25:06;;;;;;;;;;;18.20;99.90;;;17.08;52.88;96252.75;10482400;28;1866;-72
2022/05/18 20:30:09;;;;;;;;;;;18.20;99.90;;;17.08;52.95;96249.22;10487907;28;1805;-74
2022/05/18 20:35:12;;;;;;;;;;;18.10;99.90;;;17.04;53.54;96249.00;10508229;28;1800;-75
2022/05/18 20:40:15;;;;;;;;;;;18.00;99.90;;;17.24;52.95;96245.06;10474330;28;1969;-74
2022/05/18 20:45:20;;;;;;;;;;;17.90;99.90;;;16.86;53.67;96249.91;10479744;28;1828;-71
2022/05/18 20:50:23;;;;;;;;;;;17.90;99.90;;;16.76;54.26;96245.50;10482050;28;1817;-71
2022/05/18 20:55:25;;;;;;;;;;;17.80;99.90;;;16.60;54.76;96244.16;10485187;28;1786;-74
2022/05/18 21:00:29;;;;;;;;;;;17.70;99.90;;;16.34;55.44;96251.94;10504302;28;1990;-75
2022/05/18 21:05:32;;;;;;;;;;;17.50;99.90;;;16.26;56.18;96247.22;10513173;28;1786;-74
2022/05/18 21:10:35;;;;;;;;;;;17.30;99.90;;;16.13;56.30;96246.88;10494514;28;1935;-75
2022/05/18 21:15:38;;;;;;;;;;;17.20;99.90;;;16.03;56.94;96260.63;10496579;28;1860;-74
2022/05/18 21:20:47;;;;;;;;;;;17.10;99.90;;;15.97;57.30;96250.97;10527140;28;1914;-74
2022/05/18 21:25:50;;;;;;;;;;;17.00;99.90;;;15.89;57.51;96244.28;10513150;28;1758;-74
2022/05/18 21:30:53;;;;;;;;;;;16.90;99.90;;;15.87;57.82;96251.91;10524130;28;1895;-74
2022/05/18 21:35:56;;;;;;;;;;;16.90;99.90;;;15.66;58.47;96239.78;10505206;28;1830;-73
2022/05/18 21:40:58;;;;;;;;;;;16.80;99.90;;;15.70;58.41;96248.13;10507330;28;1972;-72
2022/05/18 21:46:02;;;;;;;;;;;16.70;99.90;;;15.64;58.46;96241.97;10521945;28;1741;-75
2022/05/18 21:51:04;;;;;;;;;;;16.70;99.90;;;15.55;58.75;96241.00;10510413;28;1881;-75
2022/05/18 21:56:07;;;;;;;;;;;16.60;99.90;;;15.55;59.12;96236.38;10509974;28;1947;-74
2022/05/18 22:01:10;;;;;;;;;;;16.50;99.90;;;15.39;59.04;96240.41;10516176;28;2219;-74
2022/05/18 22:06:18;;;;;;;;;;;16.50;99.90;;;15.32;60.15;96234.56;10498858;28;1775;-73
2022/05/18 22:11:22;;;;;;;;;;;16.40;99.90;;;15.26;59.51;96243.84;10497859;28;1880;-74
2022/05/18 22:16:25;;;;;;;;;;;16.30;99.90;;;15.23;59.47;96236.31;10497732;28;1875;-75
2022/05/18 22:21:28;;;;;;;;;;;16.30;99.90;;;15.23;60.23;96236.31;10516789;28;1977;-74
2022/05/18 22:26:31;;;;;;;;;;;16.20;99.90;;;15.09;59.35;96230.81;10515674;28;1858;-74
2022/05/18 22:31:35;;;;;;;;;;;16.10;99.90;;;14.96;60.04;96231.53;10517131;28;1841;-74
2022/05/18 22:36:38;;;;;;;;;;;16.10;99.90;;;15.00;60.05;96225.22;10502116;28;1752;-73
2022/05/18 22:41:41;;;;;;;;;;;16.00;99.90;;;14.90;61.01;96222.66;10511785;28;2066;-73
2022/05/18 22:46:44;;;;;;;;;;;15.90;99.90;;;14.85;59.66;96220.00;10493857;28;1902;-74
2022/05/18 22:51:47;;;;;;;;;;;15.90;99.90;;;14.74;60.35;96211.22;10520028;28;1889;-74
2022/05/18 22:56:50;;;;;;;;;;;15.80;99.90;;;14.70;60.85;96212.09;10494772;28;1810;-75
2022/05/18 23:01:54;;;;;;;;;;;15.70;99.90;;;14.69;60.46;96205.84;10513431;28;1918;-74
2022/05/18 23:06:57;;;;;;;;;;;15.70;99.90;;;14.53;60.51;96199.81;10489856;28;1885;-74
2022/05/18 23:12:00;;;;;;;;;;;15.60;99.90;;;14.43;61.51;96194.50;10504803;28;1831;-74
2022/05/18 23:17:03;;;;;;;;;;;15.50;99.90;;;14.32;61.75;96190.31;10493797;28;2432;-75
2022/05/18 23:22:06;;;;;;;;;;;15.40;99.90;;;14.20;62.47;96182.59;10504984;28;1962;-74
2022/05/18 23:27:09;;;;;;;;;;;15.30;99.90;;;14.18;62.70;96173.94;10496425;28;1901;-74
2022/05/18 23:32:13;;;;;;;;;;;15.30;99.90;;;14.09;62.76;96174.84;10504407;28;1685;-74
2022/05/18 23:37:16;;;;;;;;;;;15.20;99.90;;;13.99;63.43;96175.75;10490709;28;2158;-74